Time;durP1;ratioP1;P1;durP2;ratioP2;P2;SDS_P1;SDS_P2;PMS_P1;PMS_P2;Temp;Humidity;BMP_temperature;BMP_pressure;BME280_temperature;BME280_humidity;BME280_pressure;Samples;Min_cycle;Max_cycle;Signal;HPM_P1;HPM_P2
2022/05/06 00:00:06;;;;;;;0.40;0.40;;;10.40;99.90;;;;;;5034294;28;20421;-69
2022/05/06 00:02:55;;;;;;;0.50;0.50;;;10.30;99.90;;;;;;5033837;28;20968;-72
2022/05/06 00:05:43;;;;;;;0.50;0.50;;;10.30;99.90;;;;;;5035329;28;20429;-69
2022/05/06 00:08:31;;;;;;;0.40;0.40;;;10.30;99.90;;;;;;5034477;28;20516;-69
2022/05/06 00:11:19;;;;;;;0.50;0.50;;;10.20;99.90;;;;;;5035067;28;20465;-70
2022/05/06 00:14:07;;;;;;;0.50;0.50;;;10.10;99.90;;;;;;5033911;28;20798;-70
2022/05/06 00:16:56;;;;;;;0.40;0.40;;;10.00;99.90;;;;;;5034203;28;20433;-71
2022/05/06 00:19:45;;;;;;;0.50;0.50;;;10.00;99.90;;;;;;5033349;28;20465;-70
2022/05/06 00:22:33;;;;;;;0.50;0.50;;;10.00;99.90;;;;;;5032821;28;20440;-70
2022/05/06 00:25:21;;;;;;;0.50;0.50;;;9.90;99.90;;;;;;5034623;28;20421;-70
2022/05/06 00:28:09;;;;;;;0.40;0.40;;;9.90;99.90;;;;;;5033300;28;20429;-70
2022/05/06 00:30:57;;;;;;;0.50;0.50;;;9.80;99.90;;;;;;5034493;28;20473;-70
2022/05/06 00:33:47;;;;;;;0.50;0.50;;;9.90;99.90;;;;;;5033362;28;20425;-70
2022/05/06 00:36:36;;;;;;;0.50;0.50;;;9.70;99.90;;;;;;5033458;28;20421;-69
2022/05/06 00:39:25;;;;;;;0.50;0.50;;;9.70;99.90;;;;;;5034530;28;20432;-70
2022/05/06 00:42:13;;;;;;;0.50;0.50;;;9.60;99.90;;;;;;5033922;28;20496;-70
2022/05/06 00:45:01;;;;;;;0.50;0.50;;;9.50;99.90;;;;;;5034565;28;20476;-69
2022/05/06 00:47:51;;;;;;;0.50;0.50;;;9.50;99.90;;;;;;5033426;28;20480;-70
2022/05/06 00:50:39;;;;;;;0.50;0.50;;;9.50;99.90;;;;;;5033947;28;20547;-71
2022/05/06 00:53:29;;;;;;;0.50;0.50;;;9.40;99.90;;;;;;5032716;28;20429;-71
2022/05/06 00:56:18;;;;;;;0.50;0.50;;;9.30;99.90;;;;;;5034649;28;20429;-71
2022/05/06 00:59:06;;;;;;;0.50;0.50;;;9.40;99.90;;;;;;5015331;28;20422;-70
2022/05/06 01:01:55;;;;;;;0.40;0.40;;;9.30;99.90;;;;;;5033178;28;20473;-68
2022/05/06 01:04:43;;;;;;;0.40;0.40;;;9.30;99.90;;;;;;5034065;28;20515;-69
2022/05/06 01:07:31;;;;;;;0.40;0.40;;;9.30;99.90;;;;;;5034592;28;21020;-70
2022/05/06 01:10:22;;;;;;;0.50;0.50;;;9.20;99.90;;;;;;5033511;28;20549;-69
2022/05/06 01:13:10;;;;;;;0.40;0.40;;;9.20;99.90;;;;;;5016026;28;20922;-70
2022/05/06 01:15:58;;;;;;;0.50;0.50;;;9.20;99.90;;;;;;5013534;28;20481;-69
2022/05/06 01:18:47;;;;;;;0.50;0.50;;;9.10;99.90;;;;;;5013065;28;20446;-69
2022/05/06 01:21:39;;;;;;;0.60;0.60;;;9.10;99.90;;;;;;5014615;28;20493;-69
2022/05/06 01:24:29;;;;;;;0.50;0.50;;;9.00;99.90;;;;;;5014425;28;20513;-69
2022/05/06 01:27:23;;;;;;;0.50;0.50;;;9.00;99.90;;;;;;5014862;28;20437;-70
2022/05/06 01:30:23;;;;;;;0.50;0.50;;;8.90;99.90;;;;;;5013645;28;21271;-69
2022/05/06 01:33:13;;;;;;;0.50;0.50;;;8.80;99.90;;;;;;5013834;28;20799;-69
2022/05/06 01:36:04;;;;;;;0.50;0.50;;;8.80;99.90;;;;;;5014195;28;20539;-70
2022/05/06 01:38:55;;;;;;;0.50;0.50;;;8.80;99.90;;;;;;5014719;28;20516;-70
2022/05/06 01:41:47;;;;;;;0.50;0.50;;;8.80;99.90;;;;;;5013437;28;20462;-70
2022/05/06 01:44:38;;;;;;;0.50;0.50;;;8.70;99.90;;;;;;5014044;28;20434;-70
2022/05/06 01:47:27;;;;;;;0.40;0.40;;;8.70;99.90;;;;;;5015281;28;20964;-70
2022/05/06 01:50:18;;;;;;;0.40;0.40;;;8.60;99.90;;;;;;5015163;28;20904;-69
2022/05/06 01:53:08;;;;;;;0.50;0.50;;;8.60;99.90;;;;;;5015202;28;20422;-70
2022/05/06 01:55:56;;;;;;;0.50;0.50;;;8.50;99.90;;;;;;5014244;28;20961;-72
2022/05/06 01:58:45;;;;;;;0.50;0.50;;;8.40;99.90;;;;;;4996329;28;20423;-69
2022/05/06 02:01:34;;;;;;;0.50;0.50;;;8.30;99.90;;;;;;4995782;28;20442;-69
2022/05/06 02:07:28;;;;;;;0.50;0.50;;;8.30;99.90;;;;;;4995362;28;20505;-68
2022/05/06 02:10:16;;;;;;;0.40;0.40;;;8.30;99.90;;;;;;4994817;28;20841;-70
2022/05/06 02:13:04;;;;;;;0.40;0.40;;;8.30;99.90;;;;;;4994169;28;20427;-69
2022/05/06 02:15:53;;;;;;;0.50;0.50;;;8.30;99.90;;;;;;4995639;28;20434;-70
2022/05/06 02:18:42;;;;;;;0.50;0.50;;;8.20;99.90;;;;;;4996279;28;20434;-70
2022/05/06 02:21:30;;;;;;;0.50;0.50;;;8.20;99.90;;;;;;4996232;28;20454;-69
2022/05/06 02:24:19;;;;;;;0.43;0.43;;;8.20;99.90;;;;;;4995990;28;20426;-70
2022/05/06 02:27:07;;;;;;;0.50;0.50;;;8.10;99.90;;;;;;4994189;28;20423;-70
2022/05/06 02:33:13;;;;;;;0.50;0.50;;;8.00;99.90;;;;;;4979234;28;20484;-73
2022/05/06 02:36:02;;;;;;;0.50;0.50;;;7.90;99.90;;;;;;4993886;28;20434;-72
2022/05/06 02:38:50;;;;;;;0.50;0.50;;;7.90;99.90;;;;;;4995498;28;20433;-72
2022/05/06 02:41:38;;;;;;;0.50;0.50;;;7.90;99.90;;;;;;4995694;28;20439;-70
2022/05/06 02:44:27;;;;;;;0.50;0.50;;;7.90;99.90;;;;;;4998042;28;20478;-70
2022/05/06 02:47:15;;;;;;;0.50;0.50;;;7.90;99.90;;;;;;4999066;28;20450;-72
2022/05/06 02:50:05;;;;;;;0.50;0.50;;;7.90;99.90;;;;;;4998136;28;20427;-70
2022/05/06 02:52:54;;;;;;;0.50;0.50;;;7.90;99.90;;;;;;4997913;28;20852;-71
2022/05/06 02:55:42;;;;;;;0.50;0.50;;;7.90;99.90;;;;;;4999175;28;20551;-71
2022/05/06 02:58:30;;;;;;;0.50;0.50;;;9.60;99.90;;;;;;5037720;28;20436;-72
2022/05/06 03:01:18;;;;;;;0.50;0.50;;;7.90;99.90;;;;;;5041786;28;20961;-71
2022/05/06 03:04:06;;;;;;;0.50;0.50;;;7.80;99.90;;;;;;5037861;28;20440;-72
2022/05/06 03:06:56;;;;;;;0.50;0.50;;;7.90;99.90;;;;;;5036871;28;20432;-69
2022/05/06 03:09:44;;;;;;;0.50;0.50;;;7.80;99.90;;;;;;5037238;28;20428;-73
2022/05/06 03:12:33;;;;;;;0.50;0.50;;;7.80;99.90;;;;;;5036921;28;20571;-73
2022/05/06 03:15:21;;;;;;;0.40;0.40;;;7.80;99.90;;;;;;5036411;28;20505;-70
2022/05/06 03:18:09;;;;;;;0.50;0.50;;;7.80;99.90;;;;;;5037219;28;20421;-70
2022/05/06 03:20:57;;;;;;;0.40;0.40;;;7.80;99.90;;;;;;5037946;28;20488;-71
2022/05/06 03:23:50;;;;;;;0.50;0.50;;;7.80;99.90;;;;;;5035472;28;20430;-72
2022/05/06 03:26:38;;;;;;;0.50;0.50;;;7.80;99.90;;;;;;5037464;28;20511;-71
2022/05/06 03:29:27;;;;;;;0.40;0.40;;;7.80;99.90;;;;;;5036420;28;20522;-71
2022/05/06 03:32:15;;;;;;;0.40;0.40;;;7.70;99.90;;;;;;5037579;28;20464;-73
2022/05/06 03:35:04;;;;;;;0.50;0.50;;;7.70;99.90;;;;;;5037861;28;20515;-71
2022/05/06 03:37:53;;;;;;;0.50;0.50;;;7.60;99.90;;;;;;5036613;28;20425;-71
2022/05/06 03:40:42;;;;;;;0.50;0.50;;;7.60;99.90;;;;;;5036410;28;20464;-71
2022/05/06 03:43:30;;;;;;;0.40;0.40;;;7.60;99.90;;;;;;5037115;28;20452;-71
2022/05/06 03:46:18;;;;;;;0.50;0.50;;;7.60;99.90;;;;;;5036801;28;20499;-70
2022/05/06 03:49:06;;;;;;;0.50;0.50;;;7.50;99.90;;;;;;5037462;28;20937;-70
2022/05/06 03:51:53;;;;;;;0.50;0.50;;;7.50;99.90;;;;;;5036599;28;20519;-69
2022/05/06 03:54:41;;;;;;;0.50;0.50;;;7.60;99.90;;;;;;5036567;28;20440;-71
2022/05/06 03:57:31;;;;;;;0.40;0.40;;;7.60;99.90;;;;;;5025129;28;20438;-73
2022/05/06 04:00:20;;;;;;;0.50;0.50;;;7.60;99.90;;;;;;5035774;28;20433;-71
2022/05/06 04:03:08;;;;;;;0.40;0.40;;;7.60;99.90;;;;;;5035144;28;20428;-74
2022/05/06 04:05:56;;;;;;;0.50;0.50;;;7.70;99.90;;;;;;5036352;28;20426;-71
2022/05/06 04:08:44;;;;;;;0.40;0.40;;;7.70;99.90;;;;;;5035373;28;20512;-70
2022/05/06 04:11:32;;;;;;;0.50;0.50;;;7.80;99.90;;;;;;5035083;28;20477;-73
2022/05/06 04:14:22;;;;;;;0.50;0.50;;;7.80;99.90;;;;;;5036476;28;20964;-72
2022/05/06 04:17:10;;;;;;;0.50;0.50;;;7.80;99.90;;;;;;5036084;28;20471;-72
2022/05/06 04:26:11;;;;;;;0.50;0.50;;;8.00;99.90;;;;;;5035162;28;20424;-69
2022/05/06 04:28:59;;;;;;;0.50;0.50;;;8.20;99.90;;;;;;5035481;28;20516;-70
2022/05/06 04:31:48;;;;;;;0.40;0.40;;;8.20;99.90;;;;;;5034720;28;20601;-69
2022/05/06 04:34:36;;;;;;;0.50;0.50;;;8.20;99.90;;;;;;5034159;28;20426;-71
2022/05/06 04:37:25;;;;;;;0.50;0.50;;;8.30;99.90;;;;;;5034783;28;20437;-72
2022/05/06 04:40:13;;;;;;;0.50;0.50;;;8.30;99.90;;;;;;5034303;28;20841;-70
2022/05/06 04:43:01;;;;;;;0.47;0.47;;;8.30;99.90;;;;;;5034146;28;20448;-71
2022/05/06 04:45:50;;;;;;;0.50;0.50;;;8.40;99.90;;;;;;5034109;28;20844;-73
2022/05/06 04:48:40;;;;;;;0.60;0.60;;;8.50;99.90;;;;;;5034504;28;20425;-73
2022/05/06 04:51:28;;;;;;;0.50;0.50;;;8.50;99.90;;;;;;5033358;28;20476;-70
2022/05/06 04:54:16;;;;;;;0.50;0.50;;;8.60;99.90;;;;;;5034245;28;20505;-69
2022/05/06 04:57:05;;;;;;;0.40;0.40;;;8.70;99.90;;;;;;5034894;28;20503;-69
2022/05/06 04:59:53;;;;;;;0.93;0.50;;;8.80;99.90;;;;;;5034057;28;20428;-71
2022/05/06 05:02:41;;;;;;;0.50;0.50;;;8.90;99.90;;;;;;5034381;28;20938;-72
2022/05/06 05:05:31;;;;;;;0.60;0.60;;;8.90;99.90;;;;;;5034290;28;20425;-73
2022/05/06 05:08:19;;;;;;;0.50;0.50;;;9.00;99.90;;;;;;5035306;28;21053;-72
2022/05/06 05:11:08;;;;;;;0.40;0.40;;;9.00;99.90;;;;;;5034333;28;20507;-71
2022/05/06 05:13:57;;;;;;;0.40;0.40;;;9.10;99.90;;;;;;5034011;28;20433;-69
2022/05/06 05:16:45;;;;;;;0.50;0.50;;;9.20;99.90;;;;;;5033802;28;20433;-70
2022/05/06 05:19:33;;;;;;;0.50;0.50;;;9.30;99.90;;;;;;5032755;28;20429;-71
2022/05/06 05:22:22;;;;;;;0.50;0.50;;;9.40;99.90;;;;;;5033376;28;20463;-72
2022/05/06 05:25:11;;;;;;;0.60;0.60;;;9.50;99.90;;;;;;5033772;28;20483;-73
2022/05/06 05:27:59;;;;;;;0.40;0.40;;;9.50;99.90;;;;;;5032973;28;20461;-70
2022/05/06 05:30:47;;;;;;;0.40;0.40;;;9.60;99.90;;;;;;5032895;28;20449;-71
2022/05/06 05:33:35;;;;;;;0.50;0.50;;;9.70;99.90;;;;;;5032695;28;20465;-71
2022/05/06 05:36:23;;;;;;;0.50;0.50;;;9.80;99.90;;;;;;5033203;28;20976;-71
2022/05/06 05:39:12;;;;;;;0.40;0.40;;;9.90;99.90;;;;;;5034263;28;20939;-74
2022/05/06 05:42:00;;;;;;;0.50;0.50;;;10.00;99.90;;;;;;5032311;28;20984;-72
2022/05/06 05:48:20;;;;;;;0.40;0.40;;;10.30;99.90;;;;;;5034055;28;20425;-72
2022/05/06 05:51:08;;;;;;;0.40;0.40;;;10.30;99.90;;;;;;5014318;28;20441;-70
2022/05/06 05:53:56;;;;;;;0.40;0.40;;;10.40;99.90;;;;;;5014265;28;20466;-71
2022/05/06 05:56:46;;;;;;;0.93;0.77;;;10.60;99.90;;;;;;5014138;28;20426;-75
2022/05/06 05:59:34;;;;;;;0.50;0.50;;;10.60;99.90;;;;;;5032137;28;20476;-69
2022/05/06 06:02:22;;;;;;;0.40;0.40;;;10.70;99.90;;;;;;5019015;28;20520;-70
2022/05/06 06:05:11;;;;;;;0.40;0.40;;;10.80;99.90;;;;;;5013310;28;20429;-72
2022/05/06 06:07:59;;;;;;;0.43;0.43;;;10.90;99.90;;;;;;5014744;28;20449;-70
2022/05/06 06:10:47;;;;;;;0.40;0.40;;;11.00;99.90;;;;;;5014193;28;20513;-72
2022/05/06 06:13:36;;;;;;;1.07;1.07;;;11.10;99.90;;;;;;5014888;28;20494;-71
2022/05/06 06:16:24;;;;;;;0.50;0.50;;;11.20;99.90;;;;;;5015922;28;20453;-71
2022/05/06 06:19:12;;;;;;;0.40;0.40;;;11.30;99.90;;;;;;5018191;28;20436;-69
2022/05/06 06:22:00;;;;;;;0.40;0.40;;;11.40;99.90;;;;;;5016773;28;20829;-72
2022/05/06 06:24:49;;;;;;;0.50;0.50;;;11.50;99.90;;;;;;5013846;28;20504;-69
2022/05/06 06:27:37;;;;;;;0.60;0.60;;;11.60;99.90;;;;;;5017635;28;20532;-73
2022/05/06 06:30:28;;;;;;;0.60;0.60;;;11.80;99.90;;;;;;5017217;28;20418;-72
2022/05/06 06:33:16;;;;;;;1.23;0.60;;;11.80;99.90;;;;;;5017686;28;20961;-69
2022/05/06 06:36:04;;;;;;;0.50;0.50;;;11.90;99.90;;;;;;5017746;28;20464;-70
2022/05/06 06:38:53;;;;;;;0.80;0.77;;;12.00;99.90;;;;;;5017214;28;20515;-69
2022/05/06 06:41:41;;;;;;;0.50;0.50;;;12.10;99.90;;;;;;5018525;28;20445;-70
2022/05/06 06:44:29;;;;;;;0.50;0.50;;;12.30;99.90;;;;;;5018097;28;20425;-69
2022/05/06 06:47:19;;;;;;;0.50;0.50;;;12.30;99.90;;;;;;5017387;28;20433;-69
2022/05/06 06:50:08;;;;;;;1.17;1.17;;;12.40;99.90;;;;;;5017885;28;20433;-72
2022/05/06 06:52:56;;;;;;;0.40;0.40;;;12.50;99.90;;;;;;5017568;28;20469;-70
2022/05/06 06:55:49;;;;;;;0.40;0.40;;;12.60;99.90;;;;;;5017874;28;20426;-71
2022/05/06 06:58:37;;;;;;;0.67;0.67;;;12.70;99.90;;;;;;4998355;28;20478;-69
2022/05/06 07:01:25;;;;;;;0.40;0.40;;;12.80;99.90;;;;;;4995983;28;20496;-69
2022/05/06 07:04:15;;;;;;;0.50;0.50;;;12.90;99.90;;;;;;4997780;28;20423;-70
2022/05/06 07:13:17;;;;;;;0.40;0.40;;;13.10;99.90;;;;;;4998470;28;20477;-70
2022/05/06 07:16:05;;;;;;;0.50;0.50;;;13.20;99.90;;;;;;4996579;28;20499;-72
2022/05/06 07:18:54;;;;;;;0.50;0.50;;;13.30;99.90;;;;;;4996334;28;20427;-70
2022/05/06 07:21:44;;;;;;;0.40;0.40;;;13.40;99.90;;;;;;4995432;28;20462;-72
2022/05/06 07:24:32;;;;;;;0.40;0.40;;;13.40;99.90;;;;;;4995769;28;20431;-74
2022/05/06 07:27:21;;;;;;;0.40;0.40;;;13.50;99.90;;;;;;4995979;28;20986;-70
2022/05/06 07:30:10;;;;;;;0.40;0.40;;;13.60;99.90;;;;;;4996634;28;20777;-71
2022/05/06 07:32:58;;;;;;;0.40;0.40;;;13.60;99.90;;;;;;4995442;28;20538;-71
2022/05/06 07:35:47;;;;;;;0.40;0.40;;;13.70;99.90;;;;;;4996734;28;20427;-70
2022/05/06 07:38:36;;;;;;;0.50;0.50;;;13.80;99.90;;;;;;5023634;28;20598;-69
2022/05/06 07:41:25;;;;;;;0.47;0.47;;;14.00;99.90;;;;;;5015439;28;20541;-71
2022/05/06 07:44:14;;;;;;;0.50;0.50;;;14.00;99.90;;;;;;5021768;28;20264;-70
2022/05/06 07:47:02;;;;;;;0.50;0.50;;;14.10;99.90;;;;;;5034825;28;20205;-73
2022/05/06 07:49:51;;;;;;;1.80;1.70;;;14.20;99.90;;;;;;5021335;28;20206;-71
2022/05/06 07:52:40;;;;;;;0.50;0.50;;;14.20;99.90;;;;;;5015242;28;20202;-70
2022/05/06 07:55:35;;;;;;;0.40;0.40;;;14.40;99.90;;;;;;5014927;28;20218;-72
2022/05/06 07:58:23;;;;;;;0.50;0.50;;;14.40;99.90;;;;;;5032506;28;20213;-69
2022/05/06 08:01:12;;;;;;;0.40;0.40;;;14.40;99.90;;;;;;5013813;28;20265;-69
2022/05/06 08:07:08;;;;;;;0.40;0.40;;;14.60;99.90;;;;;;5000046;28;20205;-69
2022/05/06 08:09:57;;;;;;;0.40;0.40;;;14.70;99.90;;;;;;5016118;28;20207;-69
2022/05/06 08:12:47;;;;;;;0.60;0.60;;;14.80;99.90;;;;;;5015981;28;20230;-71
2022/05/06 08:15:35;;;;;;;0.50;0.50;;;14.90;99.90;;;;;;5016335;28;20702;-71
2022/05/06 08:18:24;;;;;;;0.40;0.40;;;15.00;99.90;;;;;;5015061;28;20211;-71
2022/05/06 08:21:12;;;;;;;1.55;1.45;;;15.10;99.90;;;;;;5016049;28;20317;-68
2022/05/06 08:24:00;;;;;;;0.40;0.40;;;15.10;99.90;;;;;;5016877;28;20202;-72
2022/05/06 08:26:49;;;;;;;0.40;0.40;;;15.20;99.90;;;;;;5016092;28;20209;-69
2022/05/06 08:29:40;;;;;;;0.65;0.65;;;15.20;99.90;;;;;;5015310;28;20222;-69
2022/05/06 08:32:28;;;;;;;0.40;0.40;;;15.20;99.90;;;;;;5015566;28;20662;-70
2022/05/06 08:35:16;;;;;;;0.80;0.80;;;15.20;99.90;;;;;;5015973;28;20722;-72
2022/05/06 08:38:05;;;;;;;0.40;0.40;;;15.30;99.90;;;;;;5015354;28;20213;-72
2022/05/06 08:40:54;;;;;;;0.40;0.40;;;15.50;99.90;;;;;;5014464;28;20273;-68
2022/05/06 08:43:42;;;;;;;0.85;0.85;;;15.60;99.90;;;;;;5016734;28;20322;-72
2022/05/06 08:52:48;;;;;;;0.50;0.50;;;16.10;99.90;;;;;;5012951;28;20209;-71
2022/05/06 08:55:37;;;;;;;0.40;0.40;;;16.10;99.90;;;;;;5014832;28;20254;-72
2022/05/06 08:58:27;;;;;;;0.40;0.40;;;16.20;99.90;;;;;;5014631;28;20210;-71
2022/05/06 09:01:17;;;;;;;0.40;0.40;;;16.40;99.90;;;;;;5013612;28;20226;-69
2022/05/06 09:04:06;;;;;;;0.40;0.40;;;16.50;99.90;;;;;;5034959;28;20568;-70
2022/05/06 09:07:14;;;;;;;0.40;0.40;;;16.50;99.90;;;;;;5033555;28;20241;-71
2022/05/06 09:10:13;;;;;;;0.40;0.40;;;16.70;99.90;;;;;;5033680;28;20291;-70
2022/05/06 09:13:02;;;;;;;1.40;1.30;;;16.50;99.90;;;;;;5032984;28;20221;-70
2022/05/06 09:19:11;;;;;;;0.40;0.40;;;16.50;99.90;;;;;;5033470;28;20198;-73
2022/05/06 09:22:05;;;;;;;0.40;0.40;;;16.70;99.90;;;;;;5033297;28;20237;-70
2022/05/06 09:24:54;;;;;;;0.40;0.40;;;17.20;99.90;;;;;;5032029;28;20194;-74
2022/05/06 09:27:53;;;;;;;0.40;0.40;;;17.60;99.90;;;;;;5031394;28;20198;-74
2022/05/06 09:30:59;;;;;;;0.90;0.90;;;18.10;99.90;;;;;;5031688;28;20253;-74
2022/05/06 09:33:47;;;;;;;0.40;0.40;;;18.20;99.90;;;;;;4993054;28;20223;-71
2022/05/06 09:36:40;;;;;;;0.70;0.70;;;18.00;99.90;;;;;;4992012;28;20215;-73
2022/05/06 09:39:28;;;;;;;1.75;1.65;;;17.80;99.90;;;;;;5000164;28;20199;-71
2022/05/06 09:42:24;;;;;;;0.43;0.43;;;17.40;99.90;;;;;;5028242;28;20273;-71
2022/05/06 09:45:13;;;;;;;0.40;0.40;;;17.40;99.90;;;;;;5022438;28;20205;-76
2022/05/06 09:48:03;;;;;;;0.55;0.55;;;17.70;99.90;;;;;;4992769;28;20210;-72
2022/05/06 09:50:51;;;;;;;0.47;0.47;;;18.00;99.90;;;;;;4993848;28;20219;-73
2022/05/06 09:53:47;;;;;;;0.40;0.40;;;18.20;99.90;;;;;;5015886;28;20206;-73
2022/05/06 09:56:35;;;;;;;0.70;0.68;;;18.60;99.90;;;;;;5019079;28;20238;-72
2022/05/06 09:59:24;;;;;;;0.52;0.52;;;18.40;99.90;;;;;;5037736;28;20285;-72
2022/05/06 10:02:12;;;;;;;0.50;0.50;;;18.30;99.90;;;;;;5038029;28;20253;-76
2022/05/06 10:05:01;;;;;;;0.50;0.50;;;18.20;99.90;;;;;;5037199;28;20194;-75
2022/05/06 10:07:52;;;;;;;1.23;0.98;;;18.10;99.90;;;;;;5038193;28;20309;-70
2022/05/06 10:10:47;;;;;;;0.75;0.75;;;17.90;99.90;;;;;;5038336;28;20222;-75
2022/05/06 10:13:38;;;;;;;0.40;0.40;;;17.80;99.90;;;;;;5024673;28;20199;-72
2022/05/06 10:16:34;;;;;;;0.52;0.52;;;17.60;99.90;;;;;;5019062;28;20202;-73
2022/05/06 10:19:27;;;;;;;0.47;0.47;;;17.70;99.90;;;;;;5018205;28;20559;-74
2022/05/06 10:22:15;;;;;;;1.13;0.80;;;17.80;99.90;;;;;;5019737;28;20225;-73
2022/05/06 10:25:04;;;;;;;0.85;0.85;;;17.90;99.90;;;;;;5017866;28;20203;-75
2022/05/06 10:34:09;;;;;;;0.40;0.40;;;18.50;99.90;;;;;;5016422;28;20305;-73
2022/05/06 10:37:00;;;;;;;2.05;0.77;;;18.40;99.90;;;;;;5013893;28;20672;-72
2022/05/06 10:39:49;;;;;;;1.25;1.20;;;18.20;99.90;;;;;;5016012;28;20222;-71
2022/05/06 10:42:37;;;;;;;0.85;0.85;;;18.10;99.90;;;;;;5015261;28;20615;-70
2022/05/06 10:45:29;;;;;;;0.40;0.40;;;18.10;99.90;;;;;;5017740;28;20727;-70
2022/05/06 10:48:21;;;;;;;0.40;0.40;;;17.90;99.90;;;;;;5038115;28;20204;-70
2022/05/06 10:51:21;;;;;;;0.40;0.40;;;18.10;99.90;;;;;;5036779;28;20240;-72
2022/05/06 10:54:14;;;;;;;0.50;0.50;;;18.20;99.90;;;;;;5038077;28;20294;-74
2022/05/06 10:57:05;;;;;;;0.40;0.40;;;18.30;99.90;;;;;;5037266;28;20659;-69
2022/05/06 10:59:55;;;;;;;0.40;0.40;;;18.10;99.90;;;;;;5037386;28;20214;-70
2022/05/06 11:02:45;;;;;;;0.40;0.40;;;18.10;99.90;;;;;;5035532;28;20644;-72
2022/05/06 11:05:33;;;;;;;0.40;0.40;;;18.20;99.90;;;;;;5033995;28;20230;-74
2022/05/06 11:08:33;;;;;;;0.40;0.40;;;18.40;99.90;;;;;;5033955;28;20210;-71
2022/05/06 11:11:21;;;;;;;0.60;0.60;;;18.60;99.90;;;;;;5033652;28;20252;-70
2022/05/06 11:14:18;;;;;;;1.05;0.60;;;18.80;99.90;;;;;;5034025;28;20202;-73
2022/05/06 11:17:16;;;;;;;0.40;0.40;;;18.90;99.90;;;;;;5033923;28;20206;-70
2022/05/06 11:20:18;;;;;;;0.47;0.40;;;19.10;99.90;;;;;;5041902;28;20206;-71
2022/05/06 11:23:09;;;;;;;0.40;0.40;;;19.10;99.90;;;;;;5035454;28;20210;-70
2022/05/06 11:25:57;;;;;;;0.40;0.40;;;19.00;99.90;;;;;;5034071;28;20515;-71
2022/05/06 11:29:01;;;;;;;0.40;0.40;;;19.00;99.90;;;;;;5033007;28;20681;-70
2022/05/06 11:31:49;;;;;;;0.40;0.40;;;18.90;99.90;;;;;;5033764;28;20225;-69
2022/05/06 11:34:40;;;;;;;0.40;0.40;;;18.70;99.90;;;;;;5034654;28;20350;-70
2022/05/06 11:37:31;;;;;;;0.40;0.40;;;18.60;99.90;;;;;;5033922;28;20202;-73
2022/05/06 11:40:34;;;;;;;0.40;0.40;;;18.60;99.90;;;;;;5032559;28;20198;-71
2022/05/06 11:43:22;;;;;;;0.40;0.40;;;18.60;99.90;;;;;;5031368;28;20260;-71
2022/05/06 11:49:25;;;;;;;0.40;0.40;;;18.80;99.90;;;;;;5032722;28;20716;-71
2022/05/06 11:52:14;;;;;;;0.40;0.40;;;18.70;99.90;;;;;;5032367;28;20214;-71
2022/05/06 11:55:05;;;;;;;0.40;0.40;;;18.90;99.90;;;;;;5033362;28;20226;-74
2022/05/06 11:57:53;;;;;;;0.40;0.40;;;19.20;99.90;;;;;;5033591;28;20225;-70
2022/05/06 12:00:42;;;;;;;0.40;0.40;;;19.60;99.90;;;;;;5032727;28;20797;-69
2022/05/06 12:03:31;;;;;;;0.40;0.40;;;20.00;99.90;;;;;;5033146;28;20325;-70
2022/05/06 12:06:41;;;;;;;1.25;1.25;;;20.10;99.90;;;;;;5032586;28;20204;-71
2022/05/06 12:09:29;;;;;;;0.40;0.40;;;20.00;99.90;;;;;;5032435;28;20202;-71
2022/05/06 12:12:19;;;;;;;0.82;0.70;;;20.10;99.90;;;;;;5033030;28;20226;-71
2022/05/06 12:15:10;;;;;;;0.40;0.40;;;20.00;99.60;;;;;;5032311;28;20280;-70
2022/05/06 12:18:05;;;;;;;0.40;0.40;;;20.00;99.90;;;;;;5032773;28;20280;-69
2022/05/06 12:20:54;;;;;;;0.40;0.40;;;20.00;99.10;;;;;;5031624;28;20233;-73
2022/05/06 12:23:49;;;;;;;0.40;0.40;;;20.00;98.10;;;;;;5033278;28;20418;-71
2022/05/06 12:26:39;;;;;;;0.60;0.60;;;20.10;97.70;;;;;;5032384;28;20576;-69
2022/05/06 12:29:35;;;;;;;0.40;0.40;;;20.20;97.70;;;;;;5031195;28;20233;-71
2022/05/06 12:32:23;;;;;;;0.40;0.40;;;20.40;96.40;;;;;;5031435;28;20726;-70
2022/05/06 12:35:12;;;;;;;0.40;0.40;;;20.40;96.60;;;;;;5032542;28;20233;-71
2022/05/06 12:38:01;;;;;;;1.05;0.75;;;20.70;96.30;;;;;;5032349;28;20198;-72
2022/05/06 12:40:50;;;;;;;0.43;0.43;;;21.30;94.30;;;;;;5008176;28;20309;-70
2022/05/06 12:43:38;;;;;;;0.40;0.40;;;22.50;93.60;;;;;;5012706;28;20273;-71
2022/05/06 12:46:29;;;;;;;0.40;0.40;;;24.50;91.20;;;;;;5013337;28;20240;-68
2022/05/06 12:52:24;;;;;;;0.40;0.40;;;27.60;77.40;;;;;;5012015;28;20258;-68
2022/05/06 12:55:13;;;;;;;0.40;0.40;;;27.20;73.40;;;;;;5012456;28;20206;-68
2022/05/06 12:58:01;;;;;;;0.40;0.40;;;26.50;73.90;;;;;;5026842;28;20206;-68
2022/05/06 13:00:49;;;;;;;0.40;0.40;;;25.80;74.60;;;;;;5032480;28;20300;-69
2022/05/06 13:03:38;;;;;;;0.40;0.40;;;25.40;74.90;;;;;;5025212;28;20310;-70
2022/05/06 13:06:27;;;;;;;0.40;0.40;;;25.20;75.30;;;;;;5007137;28;20210;-71
2022/05/06 13:09:15;;;;;;;0.40;0.40;;;25.80;75.30;;;;;;5012735;28;20261;-70
2022/05/06 13:12:03;;;;;;;0.40;0.40;;;25.90;74.00;;;;;;5011521;28;20218;-69
2022/05/06 13:14:52;;;;;;;0.40;0.40;;;25.50;72.50;;;;;;5012946;28;20206;-69
2022/05/06 13:17:40;;;;;;;0.50;0.50;;;24.80;72.20;;;;;;5013309;28;20306;-73
2022/05/06 13:20:29;;;;;;;0.40;0.40;;;23.70;73.10;;;;;;5013572;28;20206;-69
2022/05/06 13:23:17;;;;;;;0.70;0.50;;;23.20;73.10;;;;;;5014208;28;20249;-69
2022/05/06 13:26:06;;;;;;;0.40;0.40;;;22.70;73.20;;;;;;5011619;28;20252;-74
2022/05/06 13:28:54;;;;;;;0.65;0.65;;;22.40;75.60;;;;;;5011333;28;20578;-71
2022/05/06 13:31:42;;;;;;;0.40;0.40;;;22.20;77.20;;;;;;5011505;28;20229;-70
2022/05/06 13:34:30;;;;;;;0.40;0.40;;;22.30;79.30;;;;;;5009149;28;20203;-72
2022/05/06 13:37:20;;;;;;;0.40;0.40;;;22.30;80.30;;;;;;5008042;28;20226;-70
2022/05/06 13:40:09;;;;;;;0.40;0.40;;;22.30;80.10;;;;;;5011789;28;20210;-72
2022/05/06 13:42:57;;;;;;;0.40;0.40;;;22.60;80.10;;;;;;5011448;28;20253;-70
2022/05/06 13:45:45;;;;;;;0.40;0.40;;;22.90;78.30;;;;;;5012237;28;20204;-69
2022/05/06 13:48:35;;;;;;;0.40;0.40;;;23.10;76.80;;;;;;5013375;28;20613;-69
2022/05/06 13:51:24;;;;;;;0.40;0.40;;;23.20;75.90;;;;;;5011528;28;20222;-69
2022/05/06 13:54:13;;;;;;;0.40;0.40;;;24.00;76.20;;;;;;5013042;28;20206;-69
2022/05/06 14:00:09;;;;;;;0.40;0.40;;;30.20;66.30;;;;;;5030620;28;20202;-69
2022/05/06 14:02:58;;;;;;;1.25;0.60;;;31.30;61.20;;;;;;5031276;28;20229;-69
2022/05/06 14:05:47;;;;;;;0.60;0.60;;;31.40;58.30;;;;;;5031171;28;20284;-69
2022/05/06 14:08:36;;;;;;;0.50;0.50;;;30.70;57.80;;;;;;5030547;28;20554;-69
2022/05/06 14:11:27;;;;;;;0.40;0.40;;;29.90;57.20;;;;;;5023692;28;20699;-69
2022/05/06 14:14:15;;;;;;;0.40;0.40;;;28.60;58.70;;;;;;5031331;28;20198;-68
2022/05/06 14:17:03;;;;;;;0.40;0.40;;;27.70;59.50;;;;;;5032144;28;20214;-68
2022/05/06 14:19:53;;;;;;;0.40;0.40;;;26.60;61.40;;;;;;5032348;28;20206;-70
2022/05/06 14:22:41;;;;;;;0.40;0.40;;;25.90;63.20;;;;;;5032151;28;20506;-69
2022/05/06 14:25:29;;;;;;;2.35;1.35;;;25.70;62.90;;;;;;5030770;28;20725;-70
2022/05/06 14:28:19;;;;;;;0.40;0.40;;;25.80;63.40;;;;;;5032753;28;20205;-70
2022/05/06 14:31:07;;;;;;;0.40;0.40;;;25.80;63.90;;;;;;5032717;28;20222;-68
2022/05/06 14:33:55;;;;;;;0.43;0.43;;;25.70;63.90;;;;;;5031313;28;20209;-68
2022/05/06 14:36:43;;;;;;;0.40;0.40;;;25.30;61.00;;;;;;5032621;28;20258;-69
2022/05/06 14:39:37;;;;;;;0.40;0.40;;;25.10;60.40;;;;;;5036735;28;20212;-69
2022/05/06 14:42:25;;;;;;;0.52;0.52;;;24.80;61.90;;;;;;5036162;28;20218;-70
2022/05/06 14:45:15;;;;;;;1.25;1.05;;;24.80;64.40;;;;;;5035357;28;20201;-71
2022/05/06 14:48:03;;;;;;;0.40;0.40;;;24.90;64.10;;;;;;5035504;28;20199;-69
2022/05/06 14:50:52;;;;;;;0.40;0.40;;;25.80;61.90;;;;;;5035728;28;20295;-69
2022/05/06 14:53:40;;;;;;;0.40;0.40;;;28.10;57.90;;;;;;5033996;28;20283;-69
2022/05/06 14:56:29;;;;;;;0.40;0.40;;;28.30;55.60;;;;;;5034764;28;20213;-69
2022/05/06 14:59:17;;;;;;;0.40;0.40;;;27.90;55.40;;;;;;5034073;28;20527;-69
2022/05/06 15:02:06;;;;;;;0.47;0.47;;;28.40;56.70;;;;;;5034966;28;20653;-68
2022/05/06 15:04:54;;;;;;;0.40;0.40;;;29.30;55.00;;;;;;5035314;28;20713;-69
2022/05/06 15:07:43;;;;;;;0.40;0.40;;;29.10;55.10;;;;;;5034580;28;20686;-69
2022/05/06 15:10:31;;;;;;;0.40;0.40;;;28.60;56.70;;;;;;5034924;28;20235;-69
2022/05/06 15:13:19;;;;;;;0.40;0.40;;;28.60;57.10;;;;;;5034623;28;20260;-69
2022/05/06 15:16:08;;;;;;;0.40;0.40;;;28.60;57.20;;;;;;5034877;28;20210;-68
2022/05/06 15:22:06;;;;;;;0.40;0.40;;;27.30;58.90;;;;;;5034100;28;20240;-69
2022/05/06 15:24:54;;;;;;;0.40;0.40;;;26.20;60.20;;;;;;5034474;28;20667;-68
2022/05/06 15:27:42;;;;;;;0.45;0.45;;;25.60;62.10;;;;;;5034835;28;20618;-70
2022/05/06 15:30:31;;;;;;;0.43;0.43;;;25.10;62.40;;;;;;5035086;28;20565;-68
2022/05/06 15:33:20;;;;;;;1.60;1.25;;;25.80;61.40;;;;;;5033920;28;20234;-68
2022/05/06 15:36:10;;;;;;;0.40;0.40;;;26.80;59.30;;;;;;5034460;28;20226;-68
2022/05/06 15:38:58;;;;;;;0.40;0.40;;;28.60;56.60;;;;;;5033654;28;20264;-69